DW8626 Madrid ES current weather conditions

sailwx.info

Wind from 218 at 6 knots gusting 11

Air temperature 32.2° C
Dewpoint 10.3° C

Last reported at 2014-Jul-24 11:39 UTC.
Time now 2014-Jul-24 13:04 UTC

Location: N 40°29' W 003°43'.
View on Google Maps.

See reports from other nearby stations

  
Tides and Currents Weather Stations Pressure Air Temp Water Temp Dewpoint Dewpoint Depression Visibility Wind Speed Wind Dir Waves Ship Positions
date/time (UTC)wind fromknots sea level pressurealtimeterstation pressurevisibilityair tempwater tempwave heightnotes
2014-Jul-24 11:39 218 6 gusting 11 32.2
2014-Jul-24 11:24 173 1 gusting 6 32.2
2014-Jul-24 11:09 316 31.7
2014-Jul-24 10:54 156 32.8
2014-Jul-24 10:39 285 32.2
2014-Jul-24 10:24 165 30.6
2014-Jul-24 10:09 036 30.0
2014-Jul-24 09:54 075 2 gusting 5 29.4
2014-Jul-24 09:39 061 29.4
2014-Jul-24 09:24 355 29.4
2014-Jul-24 09:09 262 28.3
2014-Jul-24 08:54 068 27.2
2014-Jul-24 08:39 098 2 gusting 6 26.7
2014-Jul-24 08:24 306 26.7
2014-Jul-24 08:09 105 27.2
2014-Jul-24 07:54 096 26.7
2014-Jul-24 07:39 112 0 gusting 3 26.1
2014-Jul-24 07:24 083 25.6
2014-Jul-24 07:09 056 4 gusting 6 24.4
2014-Jul-24 06:54 084 25.0
2014-Jul-24 06:39 060 24.4
2014-Jul-24 06:24 061 2 gusting 6 24.4
2014-Jul-24 06:09 112 24.4
2014-Jul-24 05:54 028 23.9
2014-Jul-24 04:39 050 6 gusting 12 23.9
2014-Jul-24 04:24 050 8 gusting 13 23.9
2014-Jul-24 04:09 022 4 gusting 6 22.8
2014-Jul-24 03:54 019 2 gusting 6 23.9
2014-Jul-24 03:39 001 23.9
2014-Jul-24 03:24 046 5 gusting 9 23.9
2014-Jul-24 02:54 342 1 gusting 8 23.9
2014-Jul-24 02:39 023 4 gusting 6 24.4
2014-Jul-24 02:24 011 24.4
2014-Jul-24 02:09 018 24.4
2014-Jul-24 01:54 013 4 gusting 9 25.0
2014-Jul-24 01:39 037 6 gusting 10 25.0
2014-Jul-24 01:24 345 5 gusting 10 25.0
2014-Jul-24 01:09 015 4 gusting 7 25.0
2014-Jul-24 00:54 006 4 gusting 6 25.0
2014-Jul-24 00:39 008 1 gusting 5 25.6
2014-Jul-24 00:24 011 3 gusting 7 25.6
2014-Jul-24 00:09 349 25.6
2014-Jul-23 23:54 328 0 gusting 2 26.1
2014-Jul-23 23:39 342 0 gusting 1 26.1
2014-Jul-23 23:24 012 0 gusting 1 26.1
2014-Jul-23 23:09 224 26.7
2014-Jul-23 22:54 237 27.2
2014-Jul-23 22:39 153 27.8
2014-Jul-23 22:24 248 27.8
2014-Jul-23 22:09 205 28.3
2014-Jul-23 21:54 217 28.9
2014-Jul-23 21:39 224 28.9
2014-Jul-23 21:24 236 29.4
2014-Jul-23 21:09 251 1 gusting 3 29.4
2014-Jul-23 20:54 239 2 gusting 4 30.0
2014-Jul-23 20:39 220 0 gusting 3 30.0
2014-Jul-23 20:24 204 1 gusting 5 30.6
2014-Jul-23 20:09 201 1 gusting 4 31.1
2014-Jul-23 19:54 263 2 gusting 6 31.1
2014-Jul-23 19:39 237 0 gusting 6 31.7
2014-Jul-23 19:24 224 1 gusting 9 32.2
2014-Jul-23 19:09 240 6 gusting 10 32.8
2014-Jul-23 18:54 195 6 gusting 11 32.8
2014-Jul-23 18:39 211 6 gusting 13 33.3
2014-Jul-23 18:24 301 2 gusting 11 33.9
2014-Jul-23 18:09 259 2 gusting 9 33.9
2014-Jul-23 17:54 222 6 gusting 12 33.9
2014-Jul-23 17:39 239 6 gusting 14 33.9
2014-Jul-23 17:24 219 4 gusting 11 34.4
2014-Jul-23 17:09 232 4 gusting 10 34.4
2014-Jul-23 16:54 262 6 gusting 9 34.4
2014-Jul-23 16:39 212 5 gusting 13 34.4
2014-Jul-23 16:24 170 6 gusting 12 34.4
2014-Jul-23 16:09 246 5 gusting 13 34.4
2014-Jul-23 15:54 142 6 gusting 14 34.4
2014-Jul-23 15:39 299 4 gusting 11 33.9
2014-Jul-23 15:24 160 4 gusting 13 34.4
2014-Jul-23 15:09 251 4 gusting 10 34.4
2014-Jul-23 14:54 168 5 gusting 13 33.9
2014-Jul-23 14:40 274 6 gusting 13 33.9
2014-Jul-23 14:24 312 2 gusting 13 33.3
2014-Jul-23 14:09 200 5 gusting 12 33.9
2014-Jul-23 13:54 170 5 gusting 13 33.9
2014-Jul-23 13:39 215 4 gusting 13 33.3
2014-Jul-23 13:24 181 3 gusting 9 33.3
2014-Jul-23 13:09 225 2 gusting 12 32.8
2014-Jul-23 12:54 239 0 gusting 13 32.8
2014-Jul-23 12:39 166 0 gusting 9 32.8
2014-Jul-23 12:24 236 32.8
2014-Jul-23 12:09 158 4 gusting 6 32.2
2014-Jul-23 11:54 199 6 gusting 8 32.2
2014-Jul-23 11:39 177 0 gusting 3 32.2
2014-Jul-23 11:24 131 3 gusting 6 32.2
2014-Jul-23 11:09 074 1 gusting 5 31.7
2014-Jul-23 10:54 219 2 gusting 5 31.7
2014-Jul-23 10:39 212 30.6
2014-Jul-23 10:24 090 1 gusting 4 30.6
2014-Jul-23 10:09 125 31.1
2014-Jul-23 09:54 119 31.1
2014-Jul-23 09:39 249 30.0
2014-Jul-23 09:25 131 29.4
2014-Jul-23 09:09 120 27.8
2014-Jul-23 08:54 141 28.3
2014-Jul-23 08:39 084 27.8
2014-Jul-23 08:24 150 27.2
2014-Jul-23 08:09 086 26.1
2014-Jul-23 07:54 167 25.6
2014-Jul-23 07:39 049 25.0
2014-Jul-23 07:24 064 24.4
2014-Jul-23 07:09 084 23.9
2014-Jul-23 06:54 347 0 gusting 5 23.3
2014-Jul-23 06:39 076 0 gusting 4 23.3
2014-Jul-23 06:24 076 23.3
2014-Jul-23 06:10 117 22.8
2014-Jul-23 04:39 311 21.7
2014-Jul-23 04:27 011 1 gusting 2 21.7
2014-Jul-23 03:54 051 0 gusting 6 22.2
2014-Jul-23 03:39 051 3 gusting 9 22.8
2014-Jul-23 03:24 032 7 gusting 11 22.8
2014-Jul-23 03:09 026 3 gusting 6 22.8
2014-Jul-23 02:55 020 2 gusting 5 22.8
2014-Jul-23 02:39 030 1 gusting 6 23.3
2014-Jul-23 02:25 037 1 gusting 6 23.3
2014-Jul-23 02:10 028 1 gusting 4 23.3
2014-Jul-23 01:57 336 23.9
2014-Jul-23 01:24 001 4 gusting 9 24.4
2014-Jul-23 01:09 072 6 gusting 13 25.0
2014-Jul-23 00:54 074 2 gusting 9 25.6
2014-Jul-23 00:39 345 3 gusting 13 25.6
2014-Jul-23 00:24 021 6 gusting 13 26.1
2014-Jul-23 00:09 021 4 gusting 11 26.7
2014-Jul-22 23:54 063 6 gusting 13 26.7
2014-Jul-22 23:40 059 8 gusting 13 27.2
2014-Jul-22 23:27 001 6 gusting 16 27.2
2014-Jul-22 22:54 045 4 gusting 8 27.8
2014-Jul-22 22:39 044 3 gusting 7 27.8
2014-Jul-22 22:24 039 27.2
2014-Jul-22 22:09 012 27.2
2014-Jul-22 21:54 246 27.8
2014-Jul-22 21:39 250 27.8
2014-Jul-22 21:24 298 28.9
2014-Jul-22 21:09 252 28.9
2014-Jul-22 20:57 211 28.9
2014-Jul-22 20:24 214 0 gusting 3 30.0
2014-Jul-22 20:09 208 0 gusting 4 30.6
2014-Jul-22 19:42 245 1 gusting 2 31.1
2014-Jul-22 19:12 193 3 gusting 5 32.2
2014-Jul-22 18:56 198 3 gusting 4 32.8
2014-Jul-22 18:41 133 2 gusting 3 32.8
2014-Jul-22 17:56 179 1 gusting 2 33.3
2014-Jul-22 17:40 239 3 gusting 6 32.8
2014-Jul-22 17:26 236 5 gusting 6 32.8
2014-Jul-22 17:10 150 4 gusting 6 33.3
2014-Jul-22 16:25 124 1 gusting 7 32.8
2014-Jul-22 13:26 233 31.1
2014-Jul-22 13:11 112 31.7